Terminal Aerodrome Forecast
Issued by NWS

Home | Current Version | Previous Version | Text Only | Print | Product List | Glossary On
Versions: 1 2 3 4 5 6 7 8 9 10 11 12 13 14 15 16 17 18 19 20 21
000
FTUS44 KBMX 232340
TAFMGM
TAF
KMGM 232340Z 2400/2424 28011KT P6SM OVC060
      TEMPO 2401/2403 BKN025 OVC060
     FM240300 30010KT P6SM OVC025
     FM240900 30009KT 6SM BR OVC015
     FM241600 32010G17KT P6SM BKN025
     FM242000 33012G19KT P6SM SCT250=

USA.gov is the U.S. government's official web portal to all federal, state and local government web resources and services.